Time;durP1;ratioP1;P1;durP2;ratioP2;P2;SDS_P1;SDS_P2;PMS_P1;PMS_P2;Temp;Humidity;BMP_temperature;BMP_pressure;BME280_temperature;BME280_humidity;BME280_pressure;Samples;Min_cycle;Max_cycle;Signal;HPM_P1;HPM_P2
2023/02/01 00:02:19;;;;;;;10.10;5.70;;;12.20;61.90;;;;;;5002862;28;20121;-82
2023/02/01 00:04:45;;;;;;;9.02;5.22;;;12.20;61.90;;;;;;5003133;28;20504;-81
2023/02/01 00:07:10;;;;;;;8.27;5.25;;;12.20;62.00;;;;;;5019296;28;20035;-81
2023/02/01 00:09:37;;;;;;;8.85;5.32;;;12.20;62.00;;;;;;4990014;28;20026;-81
2023/02/01 00:12:03;;;;;;;8.18;5.20;;;12.20;62.00;;;;;;5006123;28;20037;-80
2023/02/01 00:14:29;;;;;;;10.18;5.32;;;12.20;62.00;;;;;;5002567;28;20455;-82
2023/02/01 00:16:55;;;;;;;7.90;5.43;;;12.20;62.00;;;;;;5017468;28;20030;-81
2023/02/01 00:19:21;;;;;;;9.23;5.60;;;12.20;61.90;;;;;;4990133;28;20152;-81
2023/02/01 00:21:47;;;;;;;7.78;4.90;;;12.20;62.10;;;;;;5004268;28;20030;-81
2023/02/01 00:24:13;;;;;;;9.38;5.40;;;12.30;62.00;;;;;;5002515;28;20037;-75
2023/02/01 00:26:42;;;;;;;8.38;5.15;;;12.30;61.90;;;;;;5001595;28;20571;-76
2023/02/01 00:29:20;;;;;;;8.65;4.97;;;12.20;61.70;;;;;;5002026;28;20034;-77
2023/02/01 00:31:46;;;;;;;9.23;5.80;;;12.20;61.70;;;;;;5017337;28;20478;-76
2023/02/01 00:34:15;;;;;;;9.05;4.95;;;12.20;61.70;;;;;;5001393;28;20416;-76
2023/02/01 00:36:42;;;;;;;11.10;6.10;;;12.20;61.60;;;;;;5000675;28;20248;-76
2023/02/01 00:39:09;;;;;;;8.57;5.32;;;12.20;61.60;;;;;;5002696;28;20034;-76
2023/02/01 00:41:35;;;;;;;8.07;4.75;;;12.30;61.70;;;;;;5001324;28;20072;-76
2023/02/01 00:44:01;;;;;;;9.63;5.78;;;12.20;61.60;;;;;;5001200;28;20566;-76
2023/02/01 00:46:28;;;;;;;8.07;5.15;;;12.20;61.60;;;;;;4984941;28;20038;-75
2023/02/01 00:48:54;;;;;;;8.30;5.05;;;12.30;61.60;;;;;;5000848;28;20026;-75
2023/02/01 00:51:23;;;;;;;6.70;4.75;;;12.20;61.60;;;;;;5000786;28;20034;-76
2023/02/01 00:53:49;;;;;;;8.07;5.57;;;12.20;61.50;;;;;;5003055;28;20519;-76
2023/02/01 00:56:16;;;;;;;8.63;5.60;;;12.20;61.40;;;;;;5001595;28;20076;-75
2023/02/01 00:58:42;;;;;;;9.15;5.40;;;12.30;61.50;;;;;;5000767;28;20037;-75
2023/02/01 01:01:17;;;;;;;9.32;5.30;;;12.30;61.40;;;;;;4998680;28;20512;-76
2023/02/01 01:03:51;;;;;;;8.38;4.90;;;12.30;61.50;;;;;;4998542;28;20489;-76
2023/02/01 01:06:26;;;;;;;8.73;5.07;;;12.30;61.40;;;;;;5000745;28;20050;-76
2023/02/01 01:08:53;;;;;;;8.75;5.57;;;12.20;61.30;;;;;;5004350;28;20477;-76
2023/02/01 01:11:23;;;;;;;9.40;5.72;;;12.20;61.20;;;;;;4999491;28;20045;-76
2023/02/01 01:13:51;;;;;;;8.15;4.90;;;12.30;61.30;;;;;;5000186;28;20385;-76
2023/02/01 01:16:17;;;;;;;7.78;5.78;;;12.30;61.20;;;;;;4999943;28;20520;-77
2023/02/01 01:18:44;;;;;;;8.52;5.18;;;12.30;61.20;;;;;;5003725;28;20062;-76
2023/02/01 01:21:13;;;;;;;8.32;5.28;;;12.20;61.30;;;;;;4999256;28;20037;-77
2023/02/01 01:23:39;;;;;;;7.20;4.85;;;12.20;61.40;;;;;;5003426;28;20393;-77
2023/02/01 01:26:10;;;;;;;7.80;4.80;;;12.30;61.50;;;;;;5016389;28;20072;-77
2023/02/01 01:28:36;;;;;;;8.75;5.40;;;12.30;61.30;;;;;;5000937;28;20030;-77
2023/02/01 01:31:07;;;;;;;7.70;5.18;;;12.30;61.30;;;;;;4988845;28;20064;-77
2023/02/01 01:33:33;;;;;;;8.07;5.28;;;12.30;61.30;;;;;;5003958;28;20070;-77
2023/02/01 01:35:59;;;;;;;8.80;5.32;;;12.30;61.30;;;;;;4998938;28;20083;-77
2023/02/01 01:38:25;;;;;;;8.68;5.15;;;12.30;61.20;;;;;;4983048;28;20030;-77
2023/02/01 01:40:51;;;;;;;9.93;5.47;;;12.30;61.20;;;;;;5000046;28;20046;-77
2023/02/01 01:43:22;;;;;;;9.00;5.07;;;12.30;61.10;;;;;;5000624;28;20500;-77
2023/02/01 01:45:50;;;;;;;8.52;5.78;;;12.30;61.10;;;;;;5002593;28;20153;-77
2023/02/01 01:48:29;;;;;;;8.63;5.35;;;12.30;61.00;;;;;;5017941;28;20026;-77
2023/02/01 01:51:01;;;;;;;9.00;5.90;;;12.30;61.00;;;;;;4999743;28;20031;-77
2023/02/01 01:53:33;;;;;;;6.15;4.90;;;12.30;61.00;;;;;;5001630;28;20030;-77
2023/02/01 01:56:01;;;;;;;9.15;5.32;;;12.30;61.00;;;;;;5005093;28;20137;-77
2023/02/01 01:58:30;;;;;;;7.03;4.88;;;12.30;61.00;;;;;;5000045;28;20092;-77
2023/02/01 02:00:56;;;;;;;8.05;5.35;;;12.30;61.40;;;;;;4999836;28;20409;-77
2023/02/01 02:03:27;;;;;;;8.73;5.10;;;12.30;61.10;;;;;;5000320;28;20053;-75
2023/02/01 02:05:57;;;;;;;8.02;5.18;;;12.30;60.90;;;;;;5003116;28;20046;-77
2023/02/01 02:08:25;;;;;;;9.85;4.95;;;12.30;60.90;;;;;;4999073;28;20120;-77
2023/02/01 02:11:01;;;;;;;7.88;5.30;;;12.30;61.60;;;;;;5017573;28;20354;-77
2023/02/01 02:13:34;;;;;;;7.43;5.00;;;12.30;60.90;;;;;;4998118;28;20038;-77
2023/02/01 02:16:15;;;;;;;8.30;5.50;;;12.30;60.80;;;;;;4998428;28;20534;-77
2023/02/01 02:19:07;;;;;;;8.95;5.47;;;12.30;60.90;;;;;;5006877;28;20034;-76
2023/02/01 02:21:44;;;;;;;10.07;5.50;;;12.30;60.70;;;;;;4967255;28;20034;-76
2023/02/01 02:24:44;;;;;;;8.43;5.43;;;12.30;60.70;;;;;;5001530;28;20056;-77
2023/02/01 02:27:24;;;;;;;9.10;5.13;;;12.30;60.80;;;;;;5001434;28;20069;-76
2023/02/01 02:30:10;;;;;;;8.80;5.63;;;12.30;60.70;;;;;;4984391;28;20061;-76
2023/02/01 02:33:03;;;;;;;8.75;5.40;;;12.30;60.90;;;;;;4985994;28;20069;-76
2023/02/01 02:35:29;;;;;;;9.07;5.38;;;12.30;60.80;;;;;;5004180;28;20030;-77
2023/02/01 02:38:19;;;;;;;7.63;5.00;;;12.30;60.90;;;;;;4985094;28;20029;-77
2023/02/01 02:41:01;;;;;;;9.45;5.50;;;12.30;61.00;;;;;;4988258;28;20050;-77
2023/02/01 02:49:39;;;;;;;9.10;5.23;;;12.30;60.70;;;;;;4985383;28;20053;-77
2023/02/01 02:54:59;;;;;;;8.20;5.32;;;12.30;60.70;;;;;;4985379;28;20045;-75
2023/02/01 03:05:50;;;;;;;8.80;5.45;;;12.30;60.50;;;;;;5001753;28;20050;-76
2023/02/01 03:08:23;;;;;;;9.82;5.88;;;12.30;60.50;;;;;;5001645;28;20053;-76
2023/02/01 03:11:06;;;;;;;8.70;5.65;;;12.30;60.60;;;;;;5006310;28;20553;-76
2023/02/01 03:13:38;;;;;;;8.25;5.05;;;12.30;60.70;;;;;;5002704;28;20046;-75
2023/02/01 03:16:32;;;;;;;7.47;5.13;;;12.40;60.70;;;;;;5005583;28;20577;-74
2023/02/01 03:19:49;;;;;;;7.07;4.68;;;12.40;60.70;;;;;;5001438;28;20125;-75
2023/02/01 03:22:20;;;;;;;8.82;5.82;;;12.30;60.50;;;;;;4966830;28;20054;-75
2023/02/01 03:24:53;;;;;;;9.40;5.43;;;12.30;60.50;;;;;;4966543;28;20058;-76
2023/02/01 03:27:38;;;;;;;7.63;5.00;;;12.30;60.50;;;;;;4966160;28;20757;-75
2023/02/01 03:30:07;;;;;;;8.00;5.00;;;12.30;60.50;;;;;;4966035;28;21272;-76
2023/02/01 03:32:58;;;;;;;8.52;5.40;;;12.30;60.30;;;;;;4950956;28;20039;-79
2023/02/01 03:35:37;;;;;;;7.13;4.60;;;12.30;60.40;;;;;;4952486;28;20073;-82
2023/02/01 03:38:14;;;;;;;8.98;5.72;;;12.30;60.30;;;;;;4966975;28;20137;-79
2023/02/01 03:40:44;;;;;;;9.90;5.13;;;12.30;60.50;;;;;;4950782;28;20082;-80
2023/02/01 03:43:15;;;;;;;9.38;5.50;;;12.40;60.50;;;;;;4967196;28;20433;-79
2023/02/01 03:45:48;;;;;;;9.35;5.60;;;12.30;60.50;;;;;;4966955;28;20673;-79
2023/02/01 03:48:16;;;;;;;8.57;5.50;;;12.30;60.70;;;;;;4933994;28;20048;-81
2023/02/01 03:50:51;;;;;;;8.70;5.22;;;12.30;60.60;;;;;;4950925;28;20034;-81
2023/02/01 03:53:22;;;;;;;9.38;5.90;;;12.40;60.80;;;;;;4948460;28;20098;-79
2023/02/01 03:55:50;;;;;;;7.72;5.22;;;12.40;60.60;;;;;;4951648;28;20510;-79
2023/02/01 03:58:20;;;;;;;9.82;5.57;;;12.40;60.50;;;;;;4994518;28;20551;-80
2023/02/01 04:00:54;;;;;;;8.02;4.95;;;12.40;60.40;;;;;;4988879;28;20034;-79
2023/02/01 04:03:24;;;;;;;9.70;5.55;;;12.40;60.50;;;;;;4983585;28;20076;-78
2023/02/01 04:05:51;;;;;;;11.50;5.85;;;12.40;60.50;;;;;;5000192;28;20069;-78
2023/02/01 04:08:20;;;;;;;9.25;5.70;;;12.40;60.40;;;;;;4984773;28;20052;-77
2023/02/01 04:10:46;;;;;;;10.25;6.13;;;12.40;60.90;;;;;;5002373;28;20038;-78
2023/02/01 04:13:12;;;;;;;10.13;5.93;;;12.30;60.20;;;;;;5003129;28;20038;-78
2023/02/01 04:15:38;;;;;;;9.10;5.88;;;12.40;60.30;;;;;;5000694;28;20030;-76
2023/02/01 04:18:05;;;;;;;10.10;5.93;;;12.40;60.30;;;;;;5001153;28;20049;-76
2023/02/01 04:20:31;;;;;;;9.85;5.50;;;12.40;60.30;;;;;;5002919;28;20472;-74
2023/02/01 04:22:58;;;;;;;9.40;5.32;;;12.40;60.40;;;;;;5004119;28;20108;-75
2023/02/01 04:25:24;;;;;;;9.85;6.03;;;12.40;60.30;;;;;;5004789;28;20942;-76
2023/02/01 04:27:51;;;;;;;9.70;5.82;;;12.40;60.40;;;;;;5002448;28;20037;-74
2023/02/01 04:30:17;;;;;;;10.05;6.32;;;12.40;60.40;;;;;;5001891;28;20026;-76
2023/02/01 04:32:43;;;;;;;9.75;6.07;;;12.40;60.30;;;;;;5002762;28;20034;-75
2023/02/01 04:35:09;;;;;;;9.88;5.80;;;12.40;60.30;;;;;;4988607;28;20347;-75
2023/02/01 04:37:36;;;;;;;10.10;5.75;;;12.40;60.90;;;;;;5001627;28;20042;-74
2023/02/01 04:40:03;;;;;;;10.85;6.00;;;12.40;60.30;;;;;;5001615;28;20049;-74
2023/02/01 04:42:30;;;;;;;12.50;6.47;;;12.40;60.30;;;;;;5001503;28;20058;-75
2023/02/01 04:44:56;;;;;;;11.05;6.22;;;12.40;60.30;;;;;;5001739;28;20096;-79
2023/02/01 04:47:22;;;;;;;11.65;6.57;;;12.40;60.40;;;;;;5001598;28;20074;-76
2023/02/01 04:49:48;;;;;;;11.27;6.60;;;12.40;60.80;;;;;;5025848;28;20397;-76
2023/02/01 04:52:13;;;;;;;12.50;7.00;;;12.40;61.30;;;;;;5008342;28;20132;-75
2023/02/01 04:54:39;;;;;;;13.55;7.45;;;12.40;61.50;;;;;;5009616;28;20029;-77
2023/02/01 04:57:05;;;;;;;12.68;6.78;;;12.40;62.00;;;;;;5002748;28;20038;-78
2023/02/01 04:59:31;;;;;;;11.80;7.18;;;12.40;62.40;;;;;;5002119;28;20038;-76
2023/02/01 05:01:57;;;;;;;13.57;7.50;;;12.40;62.70;;;;;;5001824;28;20036;-77
2023/02/01 05:04:23;;;;;;;13.10;7.60;;;12.40;63.50;;;;;;5006176;28;20057;-77
2023/02/01 05:06:49;;;;;;;16.27;8.00;;;12.40;62.90;;;;;;5003819;28;20532;-77
2023/02/01 05:09:15;;;;;;;14.80;8.43;;;12.40;63.00;;;;;;5003769;28;20046;-78
2023/02/01 05:14:25;;;;;;;15.13;8.15;;;12.40;63.10;;;;;;5002925;28;20038;-78
2023/02/01 05:16:52;;;;;;;15.20;7.93;;;12.40;63.30;;;;;;5001375;28;20077;-78
2023/02/01 05:19:18;;;;;;;16.42;8.35;;;12.50;63.30;;;;;;5000703;28;20088;-78
2023/02/01 05:21:43;;;;;;;13.48;7.85;;;12.40;63.10;;;;;;5003949;28;20128;-76
2023/02/01 05:24:10;;;;;;;15.75;8.30;;;12.40;63.00;;;;;;5000162;28;20037;-76
2023/02/01 05:26:40;;;;;;;14.60;7.22;;;12.50;63.00;;;;;;5000972;28;20038;-77
2023/02/01 05:29:07;;;;;;;15.52;8.52;;;12.50;62.90;;;;;;5000490;28;20046;-77
2023/02/01 05:31:34;;;;;;;12.68;7.95;;;12.50;62.90;;;;;;4999943;28;20537;-77
2023/02/01 05:34:00;;;;;;;15.48;7.90;;;12.50;62.80;;;;;;5001485;28;20054;-78
2023/02/01 05:36:26;;;;;;;14.32;8.13;;;12.50;62.70;;;;;;5000775;28;20045;-77
2023/02/01 05:38:52;;;;;;;16.20;8.27;;;12.50;62.60;;;;;;4999063;28;20056;-77
2023/02/01 05:41:18;;;;;;;16.55;8.65;;;12.50;62.40;;;;;;5000183;28;20384;-77
2023/02/01 05:43:44;;;;;;;14.80;7.75;;;12.50;62.40;;;;;;5000978;28;20042;-77
2023/02/01 05:46:12;;;;;;;14.20;7.90;;;12.50;62.40;;;;;;4999151;28;20483;-77
2023/02/01 05:48:42;;;;;;;16.15;7.97;;;12.50;62.20;;;;;;5003988;28;20041;-75
2023/02/01 05:51:09;;;;;;;13.88;8.02;;;12.50;62.30;;;;;;4997383;28;20702;-76
2023/02/01 05:53:35;;;;;;;16.90;8.98;;;12.50;62.00;;;;;;4997421;28;20053;-76
2023/02/01 05:56:01;;;;;;;14.82;8.30;;;12.50;62.00;;;;;;5013402;28;20037;-76
2023/02/01 05:58:27;;;;;;;17.73;8.48;;;12.50;62.10;;;;;;4997925;28;20391;-76
2023/02/01 06:00:53;;;;;;;15.30;8.10;;;12.50;62.10;;;;;;4996322;28;20353;-76
2023/02/01 06:03:19;;;;;;;14.82;8.43;;;12.50;62.40;;;;;;4997442;28;20034;-75
2023/02/01 06:05:46;;;;;;;14.85;7.43;;;12.50;62.20;;;;;;4998741;28;20064;-75
2023/02/01 06:08:12;;;;;;;15.52;8.20;;;12.50;62.20;;;;;;4985625;28;20188;-75
2023/02/01 06:10:38;;;;;;;14.52;8.07;;;12.50;62.30;;;;;;5001097;28;20042;-75
2023/02/01 06:13:05;;;;;;;15.73;9.40;;;12.50;62.30;;;;;;5000375;28;20725;-74
2023/02/01 06:15:32;;;;;;;14.75;8.13;;;12.50;62.10;;;;;;5012035;28;20045;-75
2023/02/01 06:17:58;;;;;;;16.48;7.68;;;12.50;62.20;;;;;;4998674;28;20041;-75
2023/02/01 06:20:24;;;;;;;15.30;8.88;;;12.50;62.10;;;;;;4999300;28;20038;-76
2023/02/01 06:22:50;;;;;;;14.05;8.20;;;12.50;62.00;;;;;;5012740;28;20050;-76
2023/02/01 06:25:16;;;;;;;16.08;8.27;;;12.50;61.80;;;;;;4979560;28;20038;-76
2023/02/01 06:27:44;;;;;;;16.38;9.23;;;12.50;61.90;;;;;;5016205;28;20034;-76
2023/02/01 06:30:14;;;;;;;18.65;9.95;;;12.50;61.80;;;;;;4997769;28;20036;-76
2023/02/01 06:32:42;;;;;;;17.00;9.63;;;12.50;61.60;;;;;;4995807;28;20057;-76
2023/02/01 06:35:11;;;;;;;15.93;9.32;;;12.50;61.70;;;;;;4998129;28;20030;-76
2023/02/01 06:37:37;;;;;;;20.60;9.93;;;12.50;61.60;;;;;;4999343;28;20064;-75
2023/02/01 06:40:04;;;;;;;16.40;9.05;;;12.50;61.60;;;;;;4998106;28;20038;-76
2023/02/01 06:42:30;;;;;;;16.60;9.52;;;12.50;61.40;;;;;;5002191;28;20034;-76
2023/02/01 06:44:56;;;;;;;18.60;9.02;;;12.50;61.50;;;;;;4998671;28;20038;-75
2023/02/01 06:47:22;;;;;;;16.15;8.70;;;12.60;61.60;;;;;;4995917;28;20065;-75
2023/02/01 06:49:48;;;;;;;14.65;8.57;;;12.50;61.40;;;;;;4998563;28;20064;-75
2023/02/01 06:52:14;;;;;;;15.70;8.98;;;12.50;61.30;;;;;;5001135;28;20030;-75
2023/02/01 06:54:40;;;;;;;14.23;8.35;;;12.60;61.30;;;;;;4998690;28;20540;-75
2023/02/01 06:57:06;;;;;;;18.10;9.48;;;12.60;61.10;;;;;;4994952;28;20581;-74
2023/02/01 06:59:32;;;;;;;16.98;8.77;;;12.60;61.10;;;;;;4981368;28;20035;-75
2023/02/01 07:01:58;;;;;;;14.30;9.02;;;12.60;61.00;;;;;;4977000;28;20033;-74
2023/02/01 07:04:24;;;;;;;14.57;8.00;;;12.60;60.80;;;;;;4997163;28;20145;-75
2023/02/01 07:06:50;;;;;;;16.08;8.75;;;12.60;60.80;;;;;;5001217;28;20104;-74
2023/02/01 07:09:16;;;;;;;16.23;8.52;;;12.60;60.70;;;;;;5015613;28;20508;-77
2023/02/01 07:11:43;;;;;;;13.27;7.93;;;12.60;60.80;;;;;;5002523;28;20129;-75
2023/02/01 07:14:12;;;;;;;15.57;8.98;;;12.60;60.90;;;;;;5002273;28;20038;-76
2023/02/01 07:16:38;;;;;;;12.73;7.20;;;12.60;60.90;;;;;;5000860;28;20029;-75
2023/02/01 07:19:04;;;;;;;15.43;8.20;;;12.60;61.00;;;;;;5000095;28;20045;-76
2023/02/01 07:21:30;;;;;;;13.93;8.10;;;12.60;61.20;;;;;;4987623;28;20145;-75
2023/02/01 07:23:56;;;;;;;15.98;7.97;;;12.60;61.00;;;;;;4999072;28;20025;-76
2023/02/01 07:26:22;;;;;;;14.93;8.35;;;12.60;61.00;;;;;;5000651;28;20093;-76
2023/02/01 07:28:48;;;;;;;16.40;8.18;;;12.60;60.80;;;;;;5018331;28;20492;-75
2023/02/01 07:31:18;;;;;;;16.33;8.02;;;12.60;60.70;;;;;;4999947;28;20037;-75
2023/02/01 07:33:45;;;;;;;15.27;8.52;;;12.60;60.60;;;;;;5003155;28;20540;-75
2023/02/01 07:36:14;;;;;;;14.20;8.20;;;12.60;60.50;;;;;;4999443;28;20488;-76
2023/02/01 07:38:40;;;;;;;15.65;8.90;;;12.60;60.50;;;;;;5001386;28;21019;-74
2023/02/01 07:41:07;;;;;;;17.17;8.93;;;12.60;60.50;;;;;;5000632;28;20038;-75
2023/02/01 07:43:34;;;;;;;14.40;8.45;;;12.70;60.40;;;;;;5000265;28;20062;-76
2023/02/01 07:46:01;;;;;;;14.63;9.15;;;12.70;60.40;;;;;;5001207;28;20046;-75
2023/02/01 07:48:27;;;;;;;15.05;8.75;;;12.60;60.20;;;;;;5014692;28;20532;-76
2023/02/01 07:51:09;;;;;;;16.63;8.50;;;12.60;60.10;;;;;;5002033;28;20034;-76
2023/02/01 07:53:36;;;;;;;17.10;8.90;;;12.70;60.20;;;;;;5000804;28;20037;-76
2023/02/01 07:56:02;;;;;;;14.43;7.95;;;12.70;60.30;;;;;;5003876;28;20814;-76
2023/02/01 07:58:29;;;;;;;13.60;7.70;;;12.70;60.10;;;;;;5000857;28;20401;-76
2023/02/01 08:03:40;;;;;;;15.63;8.90;;;12.70;60.00;;;;;;5000667;28;20076;-76
2023/02/01 08:06:06;;;;;;;14.75;8.35;;;12.70;60.00;;;;;;5002006;28;20659;-76
2023/02/01 08:08:32;;;;;;;13.48;7.32;;;12.70;59.50;;;;;;5002302;28;20038;-81
2023/02/01 08:11:00;;;;;;;8.90;5.05;;;12.70;60.00;;;;;;5001886;28;20397;-84
2023/02/01 08:13:26;;;;;;;7.88;4.32;;;12.80;61.40;;;;;;5002777;28;20509;-81
2023/02/01 08:15:52;;;;;;;10.45;5.75;;;12.80;62.00;;;;;;5009352;28;20046;-84
2023/02/01 08:18:18;;;;;;;10.05;6.25;;;12.90;62.50;;;;;;5011496;28;20089;-80
2023/02/01 08:20:47;;;;;;;10.38;5.60;;;12.90;62.30;;;;;;5011323;28;20026;-79
2023/02/01 08:23:13;;;;;;;10.70;6.60;;;12.90;62.00;;;;;;5010166;28;20029;-81
2023/02/01 08:25:39;;;;;;;14.75;7.78;;;12.90;61.50;;;;;;5009541;28;20087;-81
2023/02/01 08:28:07;;;;;;;15.63;7.32;;;12.90;61.20;;;;;;5010761;28;20042;-82
2023/02/01 08:30:33;;;;;;;12.90;7.85;;;13.00;61.00;;;;;;4992819;28;20038;-80
2023/02/01 08:32:59;;;;;;;11.52;7.25;;;13.00;60.80;;;;;;5010719;28;20389;-81
2023/02/01 08:35:25;;;;;;;13.02;7.57;;;12.90;60.70;;;;;;5010464;28;20030;-80
2023/02/01 08:37:51;;;;;;;12.13;7.65;;;12.90;60.60;;;;;;5011191;28;20026;-82
2023/02/01 08:40:17;;;;;;;13.45;7.47;;;13.00;60.50;;;;;;5009363;28;20046;-81
2023/02/01 08:42:52;;;;;;;13.90;7.18;;;12.90;60.30;;;;;;5008569;28;20485;-83
2023/02/01 08:45:19;;;;;;;13.98;7.63;;;12.90;60.20;;;;;;5007054;28;20038;-81
2023/02/01 08:47:46;;;;;;;12.40;6.97;;;12.90;60.20;;;;;;5004227;28;20034;-77
2023/02/01 08:50:13;;;;;;;15.00;7.63;;;12.90;60.30;;;;;;5008552;28;20034;-78
2023/02/01 08:52:39;;;;;;;15.43;7.35;;;12.90;60.50;;;;;;5004262;28;20182;-85
2023/02/01 08:55:06;;;;;;;10.95;7.15;;;12.90;60.70;;;;;;4999106;28;20037;-83
2023/02/01 08:57:33;;;;;;;13.32;8.48;;;12.90;60.70;;;;;;4998679;28;20049;-85
2023/02/01 09:00:00;;;;;;;14.32;7.95;;;12.90;61.00;;;;;;4983581;28;20030;-83
2023/02/01 09:02:26;;;;;;;14.77;7.40;;;12.90;61.20;;;;;;5000352;28;20412;-83
2023/02/01 09:04:52;;;;;;;11.80;7.40;;;13.00;61.30;;;;;;4998530;28;20483;-83
2023/02/01 09:07:18;;;;;;;13.43;7.70;;;13.00;61.40;;;;;;4972558;28;20076;-86
2023/02/01 09:09:45;;;;;;;11.77;7.32;;;13.00;61.50;;;;;;4987546;28;20724;-84
2023/02/01 09:12:11;;;;;;;14.65;7.90;;;13.00;61.60;;;;;;5003554;28;20056;-86
2023/02/01 09:14:37;;;;;;;13.98;7.55;;;13.00;61.60;;;;;;4989383;28;20022;-83
2023/02/01 09:17:05;;;;;;;12.70;7.40;;;13.00;61.70;;;;;;5015758;28;20045;-87
2023/02/01 09:19:31;;;;;;;15.05;8.63;;;13.00;61.70;;;;;;5001953;28;20045;-86
2023/02/01 09:21:57;;;;;;;11.38;6.95;;;13.00;61.80;;;;;;5000314;28;20579;-83
2023/02/01 09:24:23;;;;;;;11.25;7.28;;;13.00;61.90;;;;;;5017403;28;20042;-84
2023/02/01 09:26:50;;;;;;;13.13;7.60;;;13.00;62.00;;;;;;4988049;28;20042;-84
2023/02/01 09:29:16;;;;;;;13.35;7.32;;;13.00;62.10;;;;;;5001476;28;20052;-84
2023/02/01 09:31:42;;;;;;;13.98;7.35;;;13.00;62.20;;;;;;4988946;28;20164;-83
2023/02/01 09:34:08;;;;;;;12.00;6.75;;;13.00;62.30;;;;;;4996821;28;20039;-83
2023/02/01 09:36:35;;;;;;;11.20;7.30;;;13.00;62.30;;;;;;4979533;28;20038;-84
2023/02/01 09:39:01;;;;;;;12.30;6.75;;;13.10;62.50;;;;;;4988347;28;20045;-84
2023/02/01 09:42:12;;;;;;;10.57;6.85;;;13.10;62.40;;;;;;4983002;28;20030;-83
2023/02/01 09:44:44;;;;;;;11.10;6.55;;;13.10;62.40;;;;;;5003251;28;20042;-85
2023/02/01 09:47:21;;;;;;;9.82;6.45;;;13.10;62.40;;;;;;5002912;28;20058;-84
2023/02/01 09:50:10;;;;;;;10.30;6.63;;;13.10;62.30;;;;;;5000179;28;20042;-85
2023/02/01 09:53:09;;;;;;;12.73;7.50;;;13.10;62.20;;;;;;4995992;28;20081;-85
2023/02/01 09:55:42;;;;;;;12.32;7.03;;;13.10;62.20;;;;;;4931429;28;20042;-85
2023/02/01 09:58:17;;;;;;;9.75;5.95;;;13.10;62.20;;;;;;4931965;28;20038;-83
2023/02/01 10:00:52;;;;;;;9.55;6.20;;;13.10;62.10;;;;;;4947381;28;20076;-84
2023/02/01 10:03:18;;;;;;;12.45;7.32;;;13.10;62.10;;;;;;4932704;28;20035;-84
2023/02/01 10:06:20;;;;;;;10.85;7.22;;;13.10;61.90;;;;;;4947570;28;20136;-84
2023/02/01 10:08:51;;;;;;;11.05;6.75;;;13.10;61.90;;;;;;4959856;28;20041;-84
2023/02/01 10:11:20;;;;;;;10.30;6.72;;;13.10;61.90;;;;;;4962361;28;20081;-85
2023/02/01 10:13:54;;;;;;;10.93;6.82;;;13.10;62.00;;;;;;4948358;28;20043;-85
2023/02/01 10:16:44;;;;;;;12.13;7.47;;;13.10;61.90;;;;;;4933535;28;20165;-85
2023/02/01 10:19:18;;;;;;;10.95;6.75;;;13.10;61.90;;;;;;4933447;28;20478;-86
2023/02/01 10:21:50;;;;;;;12.40;7.15;;;13.10;61.70;;;;;;4948097;28;20042;-85
2023/02/01 10:24:34;;;;;;;12.30;7.07;;;13.10;61.60;;;;;;4950205;28;20565;-85
2023/02/01 10:27:07;;;;;;;10.30;6.35;;;13.10;61.50;;;;;;4933001;28;20046;-86
2023/02/01 10:29:40;;;;;;;10.80;6.40;;;13.10;61.40;;;;;;4962018;28;21193;-86
2023/02/01 10:32:23;;;;;;;10.35;6.82;;;13.10;61.30;;;;;;4952226;28;20045;-85
2023/02/01 10:35:00;;;;;;;11.40;6.72;;;13.10;61.20;;;;;;5003263;28;20505;-85
2023/02/01 10:37:32;;;;;;;10.77;7.07;;;13.10;61.10;;;;;;5003211;28;20060;-85
2023/02/01 10:40:02;;;;;;;11.07;7.20;;;13.10;61.20;;;;;;4993043;28;20041;-85
2023/02/01 10:42:29;;;;;;;10.57;6.90;;;13.10;61.20;;;;;;5025050;28;20140;-84
2023/02/01 10:45:00;;;;;;;10.82;7.32;;;13.10;61.10;;;;;;5009299;28;20082;-84
2023/02/01 10:47:26;;;;;;;11.43;7.32;;;13.20;61.10;;;;;;5029438;28;20113;-84
2023/02/01 10:50:18;;;;;;;11.23;7.28;;;13.10;61.00;;;;;;5028700;28;20026;-83
2023/02/01 10:53:06;;;;;;;11.85;7.47;;;13.20;61.10;;;;;;5026306;28;20057;-81
2023/02/01 10:55:44;;;;;;;11.23;7.00;;;13.10;61.00;;;;;;5000227;28;20049;-84
2023/02/01 10:58:25;;;;;;;11.30;7.70;;;13.10;60.90;;;;;;5028779;28;20078;-84
2023/02/01 11:01:05;;;;;;;11.18;7.05;;;13.20;60.90;;;;;;5027781;28;20044;-83
2023/02/01 11:04:02;;;;;;;10.55;7.00;;;13.20;60.80;;;;;;5024363;28;20042;-81
2023/02/01 11:06:36;;;;;;;10.15;6.68;;;13.10;60.70;;;;;;4993186;28;20050;-81
2023/02/01 11:09:09;;;;;;;12.30;7.63;;;13.10;60.60;;;;;;5042042;28;20022;-82
2023/02/01 11:11:57;;;;;;;12.30;7.40;;;13.10;60.50;;;;;;5006669;28;20065;-84
2023/02/01 11:14:33;;;;;;;11.77;7.05;;;13.10;60.40;;;;;;4990885;28;20034;-84
2023/02/01 11:17:10;;;;;;;10.55;6.78;;;13.10;60.30;;;;;;5005343;28;20058;-85
2023/02/01 11:19:37;;;;;;;9.00;5.88;;;13.10;60.40;;;;;;5001428;28;20117;-85
2023/02/01 11:22:04;;;;;;;10.50;6.38;;;13.10;60.40;;;;;;4986923;28;20042;-85
2023/02/01 11:24:35;;;;;;;10.02;6.65;;;13.10;60.40;;;;;;4987012;28;20105;-86
2023/02/01 11:27:13;;;;;;;12.30;7.03;;;13.10;60.30;;;;;;4985688;28;20040;-83
2023/02/01 11:29:43;;;;;;;11.88;7.72;;;13.00;60.20;;;;;;4987335;28;20034;-87
2023/02/01 11:32:12;;;;;;;9.27;6.63;;;13.00;60.20;;;;;;4992336;28;20035;-85
2023/02/01 11:34:45;;;;;;;9.93;7.13;;;13.00;60.00;;;;;;4985296;28;20035;-85
2023/02/01 11:37:23;;;;;;;11.68;7.70;;;13.00;59.90;;;;;;4987019;28;20057;-87
2023/02/01 11:40:23;;;;;;;12.15;7.75;;;13.00;59.90;;;;;;5003266;28;20074;-83
2023/02/01 11:43:13;;;;;;;13.27;8.50;;;13.00;59.80;;;;;;5014095;28;20065;-89
2023/02/01 11:45:39;;;;;;;10.95;7.30;;;13.00;59.90;;;;;;5014429;28;20038;-94
2023/02/01 11:48:14;;;;;;;10.50;7.05;;;13.00;59.90;;;;;;5015694;28;20115;-94
2023/02/01 11:50:49;;;;;;;12.05;7.75;;;13.00;59.90;;;;;;5007826;28;20040;-91
2023/02/01 11:53:33;;;;;;;14.18;8.15;;;13.00;60.00;;;;;;5013283;28;20048;-91
2023/02/01 11:56:30;;;;;;;15.02;8.27;;;13.00;60.00;;;;;;5014633;28;20103;-90
2023/02/01 11:59:17;;;;;;;12.63;7.70;;;13.00;60.00;;;;;;5001242;28;20037;-82
2023/02/01 12:02:12;;;;;;;13.70;8.85;;;13.00;60.00;;;;;;5000103;28;20046;-81
2023/02/01 12:05:01;;;;;;;13.00;7.50;;;13.00;60.00;;;;;;4985494;28;20456;-85
2023/02/01 12:07:40;;;;;;;12.27;8.13;;;13.00;60.30;;;;;;4962375;28;20043;-80
2023/02/01 12:10:21;;;;;;;13.63;7.90;;;13.00;60.20;;;;;;4950834;28;20039;-79
2023/02/01 12:13:14;;;;;;;12.50;7.82;;;13.00;60.30;;;;;;4953665;28;20030;-81
2023/02/01 12:15:55;;;;;;;11.73;7.68;;;13.00;60.20;;;;;;4984147;28;20045;-79
2023/02/01 12:18:33;;;;;;;13.48;8.85;;;13.00;60.00;;;;;;4984378;28;21487;-82
2023/02/01 12:21:16;;;;;;;13.18;7.63;;;13.00;59.90;;;;;;4983815;28;20216;-84
2023/02/01 12:24:09;;;;;;;13.52;8.25;;;13.00;59.70;;;;;;4968175;28;20042;-86
2023/02/01 12:26:40;;;;;;;14.35;8.68;;;12.90;59.50;;;;;;4983879;28;20034;-87
2023/02/01 12:29:24;;;;;;;13.05;8.30;;;13.00;59.70;;;;;;4963650;28;20042;-82
2023/02/01 12:32:20;;;;;;;10.95;7.28;;;12.90;59.70;;;;;;4983354;28;20516;-87
2023/02/01 12:34:49;;;;;;;;;;;12.90;59.70;;;;;;4982855;28;20413;-88
2023/02/01 12:37:18;;;;;;;12.93;7.72;;;12.90;59.70;;;;;;4962964;28;19917;-81
2023/02/01 12:40:14;;;;;;;12.38;7.78;;;12.90;59.70;;;;;;4984032;28;20061;-81
2023/02/01 12:42:46;;;;;;;12.60;7.57;;;12.90;59.80;;;;;;5001498;28;20212;-79
2023/02/01 12:45:41;;;;;;;10.70;7.63;;;12.80;59.80;;;;;;5000591;28;20046;-87
2023/02/01 12:48:13;;;;;;;11.70;7.40;;;12.80;59.80;;;;;;4998910;28;20041;-82
2023/02/01 12:50:53;;;;;;;11.20;7.07;;;12.80;59.90;;;;;;4999300;28;20084;-86
2023/02/01 12:53:50;;;;;;;12.00;7.00;;;12.80;59.80;;;;;;5003361;28;20033;-90
2023/02/01 12:56:26;;;;;;;11.30;6.85;;;12.80;59.80;;;;;;4990927;28;20138;-88
2023/02/01 12:58:58;;;;;;;10.23;6.65;;;12.70;59.80;;;;;;4973713;28;20509;-86
2023/02/01 13:01:43;;;;;;;13.50;6.85;;;12.70;59.90;;;;;;5001755;28;20048;-91
2023/02/01 13:04:16;;;;;;;11.60;7.25;;;12.70;60.10;;;;;;4983693;28;20041;-83
2023/02/01 13:06:52;;;;;;;10.23;6.68;;;12.70;60.00;;;;;;4982064;28;20042;-85
2023/02/01 13:09:32;;;;;;;11.02;6.88;;;12.70;60.00;;;;;;5004204;28;20037;-92
2023/02/01 13:12:07;;;;;;;10.20;7.00;;;12.70;60.10;;;;;;5025495;28;20399;-96
2023/02/01 13:15:00;;;;;;;10.40;6.68;;;12.70;60.20;;;;;;5005118;28;20041;-88
2023/02/01 13:17:32;;;;;;;8.63;6.15;;;12.70;60.20;;;;;;4988211;28;20077;-87
2023/02/01 13:20:25;;;;;;;10.52;6.25;;;12.70;60.30;;;;;;4999657;28;20034;-94
2023/02/01 13:23:04;;;;;;;11.98;6.68;;;12.60;60.10;;;;;;4986888;28;20077;-90
2023/02/01 13:25:29;;;;;;;11.20;6.80;;;12.70;60.90;;;;;;5013914;28;20062;-86
2023/02/01 13:28:02;;;;;;;11.55;6.88;;;12.60;60.30;;;;;;5001270;28;20040;-90